Terminal Aerodrome Forecast
Issued by NWS Shreveport, LA

Home | Current Version | Previous Version | Text Only | Print | Product List | Glossary On
Versions: 1 2 3 4 5 6 7 8 9 10 11 12 13 14
000
FTUS44 KSHV 031139
TAFSHV
TAF
KSHV 031139Z 0312/0412 00000KT P6SM SKC
     FM031400 15005KT P6SM FEW020 SCT250
     FM031800 14007KT P6SM SCT050 SCT250
     FM040300 18004KT P6SM SCT250=

USA.gov is the U.S. government's official web portal to all federal, state and local government web resources and services.